sensor_id;sensor_type;location;lat;lon;timestamp;temperature;humidity
1175;DHT22;576;48.418;10.074;2022-08-19T00:01:54;24.70;79.10
1175;DHT22;576;48.418;10.074;2022-08-19T00:04:25;24.70;79.00
1175;DHT22;576;48.418;10.074;2022-08-19T00:06:56;24.90;78.90
1175;DHT22;576;48.418;10.074;2022-08-19T00:09:26;25.00;78.20
1175;DHT22;576;48.418;10.074;2022-08-19T00:11:55;25.10;77.70
1175;DHT22;576;48.418;10.074;2022-08-19T00:14:24;25.10;77.90
1175;DHT22;576;48.418;10.074;2022-08-19T00:16:53;25.20;77.60
1175;DHT22;576;48.418;10.074;2022-08-19T00:19:22;25.20;77.40
1175;DHT22;576;48.418;10.074;2022-08-19T00:21:51;25.30;76.90
1175;DHT22;576;48.418;10.074;2022-08-19T00:24:21;25.40;76.50
1175;DHT22;576;48.418;10.074;2022-08-19T00:26:52;25.60;76.00
1175;DHT22;576;48.418;10.074;2022-08-19T00:29:21;25.70;75.10
1175;DHT22;576;48.418;10.074;2022-08-19T00:31:51;25.90;75.10
1175;DHT22;576;48.418;10.074;2022-08-19T00:34:23;26.00;74.20
1175;DHT22;576;48.418;10.074;2022-08-19T00:36:51;26.10;74.20
1175;DHT22;576;48.418;10.074;2022-08-19T00:39:21;26.10;73.80
1175;DHT22;576;48.418;10.074;2022-08-19T00:41:50;26.10;73.60
1175;DHT22;576;48.418;10.074;2022-08-19T00:44:22;26.20;73.60
1175;DHT22;576;48.418;10.074;2022-08-19T00:46:55;26.30;73.00
1175;DHT22;576;48.418;10.074;2022-08-19T00:49:30;26.30;73.00
1175;DHT22;576;48.418;10.074;2022-08-19T00:52:03;26.40;72.60
1175;DHT22;576;48.418;10.074;2022-08-19T00:54:33;26.50;72.60
1175;DHT22;576;48.418;10.074;2022-08-19T00:57:05;26.50;72.60
1175;DHT22;576;48.418;10.074;2022-08-19T00:59:36;26.50;72.30
1175;DHT22;576;48.418;10.074;2022-08-19T01:02:25;26.50;72.30
1175;DHT22;576;48.418;10.074;2022-08-19T01:04:54;26.40;72.10
1175;DHT22;576;48.418;10.074;2022-08-19T01:07:23;26.40;72.50
1175;DHT22;576;48.418;10.074;2022-08-19T01:09:53;26.30;72.50
1175;DHT22;576;48.418;10.074;2022-08-19T01:12:22;26.20;72.40
1175;DHT22;576;48.418;10.074;2022-08-19T01:14:52;26.10;72.90
1175;DHT22;576;48.418;10.074;2022-08-19T01:17:21;26.10;72.90
1175;DHT22;576;48.418;10.074;2022-08-19T01:19:49;26.10;73.20
1175;DHT22;576;48.418;10.074;2022-08-19T01:22:26;26.10;73.30
1175;DHT22;576;48.418;10.074;2022-08-19T01:25:00;26.20;73.20
1175;DHT22;576;48.418;10.074;2022-08-19T01:27:38;26.10;73.00
1175;DHT22;576;48.418;10.074;2022-08-19T01:30:11;26.30;73.20
1175;DHT22;576;48.418;10.074;2022-08-19T01:32:39;26.30;72.50
1175;DHT22;576;48.418;10.074;2022-08-19T01:35:08;26.30;72.50
1175;DHT22;576;48.418;10.074;2022-08-19T01:37:50;26.40;72.50
1175;DHT22;576;48.418;10.074;2022-08-19T01:40:21;26.40;72.40
1175;DHT22;576;48.418;10.074;2022-08-19T01:42:51;26.50;72.10
1175;DHT22;576;48.418;10.074;2022-08-19T01:45:21;26.50;71.70
1175;DHT22;576;48.418;10.074;2022-08-19T01:47:50;26.60;71.90
1175;DHT22;576;48.418;10.074;2022-08-19T01:50:28;26.60;71.20
1175;DHT22;576;48.418;10.074;2022-08-19T01:52:59;26.60;71.00
1175;DHT22;576;48.418;10.074;2022-08-19T01:55:33;26.60;71.40
1175;DHT22;576;48.418;10.074;2022-08-19T01:58:11;26.60;71.60
1175;DHT22;576;48.418;10.074;2022-08-19T02:00:40;26.50;71.00
1175;DHT22;576;48.418;10.074;2022-08-19T02:03:09;26.40;71.60
1175;DHT22;576;48.418;10.074;2022-08-19T02:05:39;26.40;71.50
1175;DHT22;576;48.418;10.074;2022-08-19T02:08:10;26.40;71.50
1175;DHT22;576;48.418;10.074;2022-08-19T02:10:40;26.50;71.40
1175;DHT22;576;48.418;10.074;2022-08-19T02:13:09;26.30;71.60
1175;DHT22;576;48.418;10.074;2022-08-19T02:15:38;26.30;72.00
1175;DHT22;576;48.418;10.074;2022-08-19T02:18:06;26.40;72.00
1175;DHT22;576;48.418;10.074;2022-08-19T02:20:36;26.40;71.60
1175;DHT22;576;48.418;10.074;2022-08-19T02:23:05;26.40;71.50
1175;DHT22;576;48.418;10.074;2022-08-19T02:25:46;26.50;71.60
1175;DHT22;576;48.418;10.074;2022-08-19T02:28:14;26.50;71.60
1175;DHT22;576;48.418;10.074;2022-08-19T02:30:46;26.60;71.30
1175;DHT22;576;48.418;10.074;2022-08-19T02:33:15;26.60;70.90
1175;DHT22;576;48.418;10.074;2022-08-19T02:35:45;26.70;70.90
1175;DHT22;576;48.418;10.074;2022-08-19T02:38:14;26.70;70.80
1175;DHT22;576;48.418;10.074;2022-08-19T02:40:58;26.70;71.00
1175;DHT22;576;48.418;10.074;2022-08-19T02:43:28;26.70;71.10
1175;DHT22;576;48.418;10.074;2022-08-19T02:46:00;26.80;70.70
1175;DHT22;576;48.418;10.074;2022-08-19T02:48:36;26.80;70.30
1175;DHT22;576;48.418;10.074;2022-08-19T02:51:07;26.80;70.60
1175;DHT22;576;48.418;10.074;2022-08-19T02:53:35;26.80;70.50
1175;DHT22;576;48.418;10.074;2022-08-19T02:56:11;26.80;70.60
1175;DHT22;576;48.418;10.074;2022-08-19T02:58:39;26.60;70.60
1175;DHT22;576;48.418;10.074;2022-08-19T03:01:18;26.60;70.80
1175;DHT22;576;48.418;10.074;2022-08-19T03:03:47;26.60;71.10
1175;DHT22;576;48.418;10.074;2022-08-19T03:06:16;26.50;70.90
1175;DHT22;576;48.418;10.074;2022-08-19T03:08:46;26.50;71.20
1175;DHT22;576;48.418;10.074;2022-08-19T03:11:18;26.60;70.80
1175;DHT22;576;48.418;10.074;2022-08-19T03:13:47;26.60;71.10
1175;DHT22;576;48.418;10.074;2022-08-19T03:16:18;26.50;70.80
1175;DHT22;576;48.418;10.074;2022-08-19T03:18:47;26.40;70.40
1175;DHT22;576;48.418;10.074;2022-08-19T03:21:16;26.40;71.20
1175;DHT22;576;48.418;10.074;2022-08-19T03:23:45;26.50;71.20
1175;DHT22;576;48.418;10.074;2022-08-19T03:26:13;26.60;70.90
1175;DHT22;576;48.418;10.074;2022-08-19T03:28:45;26.70;70.60
1175;DHT22;576;48.418;10.074;2022-08-19T03:31:25;26.60;70.80
1175;DHT22;576;48.418;10.074;2022-08-19T03:34:16;26.60;70.50
1175;DHT22;576;48.418;10.074;2022-08-19T03:36:46;26.40;71.10
1175;DHT22;576;48.418;10.074;2022-08-19T03:39:15;26.30;70.90
1175;DHT22;576;48.418;10.074;2022-08-19T03:41:45;26.20;71.80
1175;DHT22;576;48.418;10.074;2022-08-19T03:44:17;26.20;71.70
1175;DHT22;576;48.418;10.074;2022-08-19T03:46:48;26.20;71.70
1175;DHT22;576;48.418;10.074;2022-08-19T03:49:18;26.30;71.60
1175;DHT22;576;48.418;10.074;2022-08-19T03:51:48;26.30;71.80
1175;DHT22;576;48.418;10.074;2022-08-19T03:54:18;26.40;71.40
1175;DHT22;576;48.418;10.074;2022-08-19T03:56:49;26.60;71.00
1175;DHT22;576;48.418;10.074;2022-08-19T03:59:24;26.60;70.50
1175;DHT22;576;48.418;10.074;2022-08-19T04:01:53;26.60;70.50
1175;DHT22;576;48.418;10.074;2022-08-19T04:04:22;26.50;70.60
1175;DHT22;576;48.418;10.074;2022-08-19T04:06:55;26.50;70.60
1175;DHT22;576;48.418;10.074;2022-08-19T04:09:24;26.50;70.40
1175;DHT22;576;48.418;10.074;2022-08-19T04:11:54;26.60;70.30
1175;DHT22;576;48.418;10.074;2022-08-19T04:14:26;26.60;70.50
1175;DHT22;576;48.418;10.074;2022-08-19T04:16:56;26.60;70.60
1175;DHT22;576;48.418;10.074;2022-08-19T04:19:25;26.60;70.60
1175;DHT22;576;48.418;10.074;2022-08-19T04:21:54;26.40;70.50
1175;DHT22;576;48.418;10.074;2022-08-19T04:24:23;26.40;71.00
1175;DHT22;576;48.418;10.074;2022-08-19T04:26:51;26.40;71.10
1175;DHT22;576;48.418;10.074;2022-08-19T04:29:22;26.40;70.70
1175;DHT22;576;48.418;10.074;2022-08-19T04:31:55;26.30;71.10
1175;DHT22;576;48.418;10.074;2022-08-19T04:34:26;26.10;71.20
1175;DHT22;576;48.418;10.074;2022-08-19T04:36:57;25.90;72.10
1175;DHT22;576;48.418;10.074;2022-08-19T04:39:28;26.00;72.20
1175;DHT22;576;48.418;10.074;2022-08-19T04:42:10;26.10;72.00
1175;DHT22;576;48.418;10.074;2022-08-19T04:44:57;26.30;71.70
1175;DHT22;576;48.418;10.074;2022-08-19T04:47:27;26.40;71.20
1175;DHT22;576;48.418;10.074;2022-08-19T04:50:15;26.50;70.90
1175;DHT22;576;48.418;10.074;2022-08-19T04:52:44;26.60;70.70
1175;DHT22;576;48.418;10.074;2022-08-19T04:55:13;26.60;70.70
1175;DHT22;576;48.418;10.074;2022-08-19T04:57:41;26.70;70.50
1175;DHT22;576;48.418;10.074;2022-08-19T05:00:10;26.80;70.30
1175;DHT22;576;48.418;10.074;2022-08-19T05:02:40;26.80;70.40
1175;DHT22;576;48.418;10.074;2022-08-19T05:05:08;26.80;70.30
1175;DHT22;576;48.418;10.074;2022-08-19T05:07:37;26.80;70.30
1175;DHT22;576;48.418;10.074;2022-08-19T05:10:07;26.80;70.10
1175;DHT22;576;48.418;10.074;2022-08-19T05:12:35;26.90;70.00
1175;DHT22;576;48.418;10.074;2022-08-19T05:15:05;27.00;69.80
1175;DHT22;576;48.418;10.074;2022-08-19T05:17:35;27.00;69.80
1175;DHT22;576;48.418;10.074;2022-08-19T05:20:08;27.00;69.60
1175;DHT22;576;48.418;10.074;2022-08-19T05:22:54;27.00;69.80
1175;DHT22;576;48.418;10.074;2022-08-19T05:25:22;26.90;69.90
1175;DHT22;576;48.418;10.074;2022-08-19T05:27:51;26.70;70.20
1175;DHT22;576;48.418;10.074;2022-08-19T05:30:22;26.60;70.40
1175;DHT22;576;48.418;10.074;2022-08-19T05:33:11;26.60;70.80
1175;DHT22;576;48.418;10.074;2022-08-19T05:35:40;26.60;70.80
1175;DHT22;576;48.418;10.074;2022-08-19T05:38:08;26.40;71.10
1175;DHT22;576;48.418;10.074;2022-08-19T05:40:38;26.30;71.30
1175;DHT22;576;48.418;10.074;2022-08-19T05:43:07;26.10;72.00
1175;DHT22;576;48.418;10.074;2022-08-19T05:45:39;26.10;71.80
1175;DHT22;576;48.418;10.074;2022-08-19T05:48:08;26.00;72.40
1175;DHT22;576;48.418;10.074;2022-08-19T05:50:40;25.80;72.50
1175;DHT22;576;48.418;10.074;2022-08-19T05:53:08;25.70;73.70
1175;DHT22;576;48.418;10.074;2022-08-19T05:55:37;25.50;73.70
1175;DHT22;576;48.418;10.074;2022-08-19T05:58:06;25.30;73.90
1175;DHT22;576;48.418;10.074;2022-08-19T06:00:35;25.20;74.60
1175;DHT22;576;48.418;10.074;2022-08-19T06:03:03;25.40;74.10
1175;DHT22;576;48.418;10.074;2022-08-19T06:05:40;25.50;73.80
1175;DHT22;576;48.418;10.074;2022-08-19T06:08:19;25.70;73.30
1175;DHT22;576;48.418;10.074;2022-08-19T06:11:16;26.00;72.60
1175;DHT22;576;48.418;10.074;2022-08-19T06:13:46;26.30;71.90
1175;DHT22;576;48.418;10.074;2022-08-19T06:16:26;26.40;71.60
1175;DHT22;576;48.418;10.074;2022-08-19T06:18:55;26.60;70.90
1175;DHT22;576;48.418;10.074;2022-08-19T06:21:27;26.70;70.60
1175;DHT22;576;48.418;10.074;2022-08-19T06:23:56;26.70;70.60
1175;DHT22;576;48.418;10.074;2022-08-19T06:26:26;26.70;71.30
1175;DHT22;576;48.418;10.074;2022-08-19T06:28:54;26.70;71.10
1175;DHT22;576;48.418;10.074;2022-08-19T06:31:25;26.70;71.10
1175;DHT22;576;48.418;10.074;2022-08-19T06:33:53;26.70;71.00
1175;DHT22;576;48.418;10.074;2022-08-19T06:36:24;26.80;70.80
1175;DHT22;576;48.418;10.074;2022-08-19T06:39:00;26.80;71.00
1175;DHT22;576;48.418;10.074;2022-08-19T06:41:30;26.70;71.20
1175;DHT22;576;48.418;10.074;2022-08-19T06:43:58;26.60;71.20
1175;DHT22;576;48.418;10.074;2022-08-19T06:46:27;26.60;72.20
1175;DHT22;576;48.418;10.074;2022-08-19T06:48:59;26.70;71.60
1175;DHT22;576;48.418;10.074;2022-08-19T06:51:27;26.70;71.30
1175;DHT22;576;48.418;10.074;2022-08-19T06:53:58;26.70;71.10
1175;DHT22;576;48.418;10.074;2022-08-19T06:56:30;26.70;70.90
1175;DHT22;576;48.418;10.074;2022-08-19T06:59:00;26.70;70.90
1175;DHT22;576;48.418;10.074;2022-08-19T07:01:29;26.60;71.00
1175;DHT22;576;48.418;10.074;2022-08-19T07:03:57;26.70;70.60
1175;DHT22;576;48.418;10.074;2022-08-19T07:06:25;26.60;70.60
1175;DHT22;576;48.418;10.074;2022-08-19T07:09:13;26.40;71.00
1175;DHT22;576;48.418;10.074;2022-08-19T07:11:45;26.50;71.00
1175;DHT22;576;48.418;10.074;2022-08-19T07:14:15;26.50;71.00
1175;DHT22;576;48.418;10.074;2022-08-19T07:16:48;26.50;70.80
1175;DHT22;576;48.418;10.074;2022-08-19T07:19:17;26.50;70.60
1175;DHT22;576;48.418;10.074;2022-08-19T07:21:50;26.40;70.70
1175;DHT22;576;48.418;10.074;2022-08-19T07:24:23;26.20;71.20
1175;DHT22;576;48.418;10.074;2022-08-19T07:26:54;26.10;71.50
1175;DHT22;576;48.418;10.074;2022-08-19T07:29:23;26.20;71.50
1175;DHT22;576;48.418;10.074;2022-08-19T07:31:55;26.30;71.20
1175;DHT22;576;48.418;10.074;2022-08-19T07:34:28;26.40;70.90
1175;DHT22;576;48.418;10.074;2022-08-19T07:36:56;26.50;70.70
1175;DHT22;576;48.418;10.074;2022-08-19T07:39:28;26.60;71.00
1175;DHT22;576;48.418;10.074;2022-08-19T07:41:59;26.60;70.70
1175;DHT22;576;48.418;10.074;2022-08-19T07:44:28;26.70;70.50
1175;DHT22;576;48.418;10.074;2022-08-19T07:46:57;26.60;70.50
1175;DHT22;576;48.418;10.074;2022-08-19T07:49:27;26.60;70.70
1175;DHT22;576;48.418;10.074;2022-08-19T07:51:58;26.60;70.80
1175;DHT22;576;48.418;10.074;2022-08-19T07:54:31;26.50;70.90
1175;DHT22;576;48.418;10.074;2022-08-19T07:57:01;26.50;70.90
1175;DHT22;576;48.418;10.074;2022-08-19T07:59:30;26.40;71.20
1175;DHT22;576;48.418;10.074;2022-08-19T08:01:58;26.50;70.80
1175;DHT22;576;48.418;10.074;2022-08-19T08:04:28;26.60;70.40
1175;DHT22;576;48.418;10.074;2022-08-19T08:07:14;26.80;70.00
1175;DHT22;576;48.418;10.074;2022-08-19T08:10:03;26.90;69.60
1175;DHT22;576;48.418;10.074;2022-08-19T08:12:40;26.90;69.40
1175;DHT22;576;48.418;10.074;2022-08-19T08:15:24;27.00;69.10
1175;DHT22;576;48.418;10.074;2022-08-19T08:17:55;27.00;68.90
1175;DHT22;576;48.418;10.074;2022-08-19T08:20:24;27.10;68.80
1175;DHT22;576;48.418;10.074;2022-08-19T08:22:52;27.10;68.70
1175;DHT22;576;48.418;10.074;2022-08-19T08:25:39;27.20;68.50
1175;DHT22;576;48.418;10.074;2022-08-19T08:28:09;27.20;68.60
1175;DHT22;576;48.418;10.074;2022-08-19T08:30:44;27.20;68.50
1175;DHT22;576;48.418;10.074;2022-08-19T08:33:18;27.20;68.40
1175;DHT22;576;48.418;10.074;2022-08-19T08:36:01;27.20;68.30
1175;DHT22;576;48.418;10.074;2022-08-19T08:38:30;27.20;68.40
1175;DHT22;576;48.418;10.074;2022-08-19T08:41:28;27.30;68.40
1175;DHT22;576;48.418;10.074;2022-08-19T08:44:01;27.30;68.20
1175;DHT22;576;48.418;10.074;2022-08-19T08:46:36;27.30;68.10
1175;DHT22;576;48.418;10.074;2022-08-19T08:49:19;27.30;68.20
1175;DHT22;576;48.418;10.074;2022-08-19T08:51:51;27.30;68.10
1175;DHT22;576;48.418;10.074;2022-08-19T08:54:30;27.30;68.00
1175;DHT22;576;48.418;10.074;2022-08-19T08:57:03;27.30;68.10
1175;DHT22;576;48.418;10.074;2022-08-19T08:59:35;27.30;68.00
1175;DHT22;576;48.418;10.074;2022-08-19T09:02:04;27.30;68.10
1175;DHT22;576;48.418;10.074;2022-08-19T09:04:34;27.30;68.00
1175;DHT22;576;48.418;10.074;2022-08-19T09:07:16;27.30;68.00
1175;DHT22;576;48.418;10.074;2022-08-19T09:10:07;27.30;68.00
1175;DHT22;576;48.418;10.074;2022-08-19T09:12:44;27.30;67.90
1175;DHT22;576;48.418;10.074;2022-08-19T09:15:20;27.30;67.90
1175;DHT22;576;48.418;10.074;2022-08-19T09:18:00;27.30;67.80
1175;DHT22;576;48.418;10.074;2022-08-19T09:20:33;27.30;67.80
1175;DHT22;576;48.418;10.074;2022-08-19T09:23:02;27.30;67.80
1175;DHT22;576;48.418;10.074;2022-08-19T09:25:30;27.30;67.80
1175;DHT22;576;48.418;10.074;2022-08-19T09:28:03;27.30;67.80
1175;DHT22;576;48.418;10.074;2022-08-19T09:30:51;27.30;67.80
1175;DHT22;576;48.418;10.074;2022-08-19T09:33:20;27.30;67.70
1175;DHT22;576;48.418;10.074;2022-08-19T09:35:48;27.30;67.70
1175;DHT22;576;48.418;10.074;2022-08-19T09:38:20;27.30;67.70
1175;DHT22;576;48.418;10.074;2022-08-19T09:40:48;27.40;67.70
1175;DHT22;576;48.418;10.074;2022-08-19T09:43:18;27.40;67.70
1175;DHT22;576;48.418;10.074;2022-08-19T09:46:00;27.40;67.60
1175;DHT22;576;48.418;10.074;2022-08-19T09:48:29;27.40;67.60
1175;DHT22;576;48.418;10.074;2022-08-19T09:51:02;27.40;67.60
1175;DHT22;576;48.418;10.074;2022-08-19T09:53:31;27.40;67.50
1175;DHT22;576;48.418;10.074;2022-08-19T09:56:00;27.40;67.50
1175;DHT22;576;48.418;10.074;2022-08-19T09:58:31;27.40;67.80
1175;DHT22;576;48.418;10.074;2022-08-19T10:01:01;27.30;68.60
1175;DHT22;576;48.418;10.074;2022-08-19T10:03:31;27.20;68.80
1175;DHT22;576;48.418;10.074;2022-08-19T10:06:03;27.20;68.90
1175;DHT22;576;48.418;10.074;2022-08-19T10:09:17;27.10;69.10
1175;DHT22;576;48.418;10.074;2022-08-19T10:12:01;27.10;69.40
1175;DHT22;576;48.418;10.074;2022-08-19T10:14:31;27.10;69.40
1175;DHT22;576;48.418;10.074;2022-08-19T10:17:00;27.10;69.50
1175;DHT22;576;48.418;10.074;2022-08-19T10:19:43;27.20;69.20
1175;DHT22;576;48.418;10.074;2022-08-19T10:22:22;27.20;69.10
1175;DHT22;576;48.418;10.074;2022-08-19T10:24:52;27.20;68.80
1175;DHT22;576;48.418;10.074;2022-08-19T10:27:20;27.30;68.70
1175;DHT22;576;48.418;10.074;2022-08-19T10:29:50;27.30;68.50
1175;DHT22;576;48.418;10.074;2022-08-19T10:32:20;27.30;68.70
1175;DHT22;576;48.418;10.074;2022-08-19T10:35:00;27.30;68.80
1175;DHT22;576;48.418;10.074;2022-08-19T10:37:31;27.40;68.70
1175;DHT22;576;48.418;10.074;2022-08-19T10:40:01;27.40;69.20
1175;DHT22;576;48.418;10.074;2022-08-19T10:42:30;27.30;68.80
1175;DHT22;576;48.418;10.074;2022-08-19T10:45:00;27.20;69.10
1175;DHT22;576;48.418;10.074;2022-08-19T10:47:30;27.20;69.20
1175;DHT22;576;48.418;10.074;2022-08-19T10:49:59;27.10;69.40
1175;DHT22;576;48.418;10.074;2022-08-19T10:52:46;27.10;69.60
1175;DHT22;576;48.418;10.074;2022-08-19T10:55:18;27.00;69.80
1175;DHT22;576;48.418;10.074;2022-08-19T10:58:09;27.00;69.80
1175;DHT22;576;48.418;10.074;2022-08-19T11:00:39;26.90;70.10
1175;DHT22;576;48.418;10.074;2022-08-19T11:03:08;26.60;70.50
1175;DHT22;576;48.418;10.074;2022-08-19T11:05:37;26.20;71.80
1175;DHT22;576;48.418;10.074;2022-08-19T11:08:06;26.00;72.40
1175;DHT22;576;48.418;10.074;2022-08-19T11:10:51;25.70;73.10
1175;DHT22;576;48.418;10.074;2022-08-19T11:13:24;25.30;74.10
1175;DHT22;576;48.418;10.074;2022-08-19T11:15:59;25.10;74.80
1175;DHT22;576;48.418;10.074;2022-08-19T11:18:34;25.00;75.50
1175;DHT22;576;48.418;10.074;2022-08-19T11:21:07;24.70;76.10
1175;DHT22;576;48.418;10.074;2022-08-19T11:23:56;24.50;77.10
1175;DHT22;576;48.418;10.074;2022-08-19T11:26:28;24.50;77.30
1175;DHT22;576;48.418;10.074;2022-08-19T11:28:57;24.30;77.40
1175;DHT22;576;48.418;10.074;2022-08-19T11:31:30;24.20;78.10
1175;DHT22;576;48.418;10.074;2022-08-19T11:34:01;24.20;78.20
1175;DHT22;576;48.418;10.074;2022-08-19T11:36:31;24.20;78.20
1175;DHT22;576;48.418;10.074;2022-08-19T11:39:00;24.20;78.50
1175;DHT22;576;48.418;10.074;2022-08-19T11:41:29;24.10;78.50
1175;DHT22;576;48.418;10.074;2022-08-19T11:44:06;24.20;78.50
1175;DHT22;576;48.418;10.074;2022-08-19T11:46:38;24.20;78.60
1175;DHT22;576;48.418;10.074;2022-08-19T11:49:07;24.20;78.50
1175;DHT22;576;48.418;10.074;2022-08-19T11:51:40;24.20;78.70
1175;DHT22;576;48.418;10.074;2022-08-19T11:54:09;24.30;78.00
1175;DHT22;576;48.418;10.074;2022-08-19T11:56:38;24.40;78.40
1175;DHT22;576;48.418;10.074;2022-08-19T11:59:07;24.50;78.30
1175;DHT22;576;48.418;10.074;2022-08-19T12:01:42;24.50;78.20
1175;DHT22;576;48.418;10.074;2022-08-19T12:04:10;24.40;78.60
1175;DHT22;576;48.418;10.074;2022-08-19T12:06:40;24.40;78.30
1175;DHT22;576;48.418;10.074;2022-08-19T12:09:09;24.30;78.40
1175;DHT22;576;48.418;10.074;2022-08-19T12:11:39;24.30;78.50
1175;DHT22;576;48.418;10.074;2022-08-19T12:14:10;24.30;79.10
1175;DHT22;576;48.418;10.074;2022-08-19T12:16:46;24.30;79.00
1175;DHT22;576;48.418;10.074;2022-08-19T12:19:18;24.30;79.60
1175;DHT22;576;48.418;10.074;2022-08-19T12:21:49;24.30;78.90
1175;DHT22;576;48.418;10.074;2022-08-19T12:24:17;24.30;79.50
1175;DHT22;576;48.418;10.074;2022-08-19T12:26:50;24.40;79.40
1175;DHT22;576;48.418;10.074;2022-08-19T12:29:20;24.60;78.40
1175;DHT22;576;48.418;10.074;2022-08-19T12:31:51;24.80;77.60
1175;DHT22;576;48.418;10.074;2022-08-19T12:34:20;24.80;77.40
1175;DHT22;576;48.418;10.074;2022-08-19T12:36:48;24.70;77.70
1175;DHT22;576;48.418;10.074;2022-08-19T12:39:17;24.70;77.40
1175;DHT22;576;48.418;10.074;2022-08-19T12:41:45;24.60;78.20
1175;DHT22;576;48.418;10.074;2022-08-19T12:44:20;24.40;78.60
1175;DHT22;576;48.418;10.074;2022-08-19T12:47:00;24.30;79.00
1175;DHT22;576;48.418;10.074;2022-08-19T12:49:32;24.10;79.80
1175;DHT22;576;48.418;10.074;2022-08-19T12:52:20;24.00;80.20
1175;DHT22;576;48.418;10.074;2022-08-19T12:54:49;23.90;80.30
1175;DHT22;576;48.418;10.074;2022-08-19T12:57:21;23.90;80.90
1175;DHT22;576;48.418;10.074;2022-08-19T12:59:57;24.00;80.30
1175;DHT22;576;48.418;10.074;2022-08-19T13:02:26;24.10;79.90
1175;DHT22;576;48.418;10.074;2022-08-19T13:04:55;24.20;79.50
1175;DHT22;576;48.418;10.074;2022-08-19T13:07:24;24.20;79.90
1175;DHT22;576;48.418;10.074;2022-08-19T13:09:52;24.10;79.80
1175;DHT22;576;48.418;10.074;2022-08-19T13:12:20;24.10;80.00
1175;DHT22;576;48.418;10.074;2022-08-19T13:14:52;24.10;80.00
1175;DHT22;576;48.418;10.074;2022-08-19T13:17:20;24.10;80.30
1175;DHT22;576;48.418;10.074;2022-08-19T13:19:49;24.10;80.00
1175;DHT22;576;48.418;10.074;2022-08-19T13:22:18;24.10;79.90
1175;DHT22;576;48.418;10.074;2022-08-19T13:24:46;24.20;79.80
1175;DHT22;576;48.418;10.074;2022-08-19T13:27:15;24.20;79.80
1175;DHT22;576;48.418;10.074;2022-08-19T13:29:43;24.20;80.10
1175;DHT22;576;48.418;10.074;2022-08-19T13:32:29;24.10;80.20
1175;DHT22;576;48.418;10.074;2022-08-19T13:35:17;24.10;80.50
1175;DHT22;576;48.418;10.074;2022-08-19T13:37:48;24.10;80.10
1175;DHT22;576;48.418;10.074;2022-08-19T13:40:20;24.10;80.40
1175;DHT22;576;48.418;10.074;2022-08-19T13:42:51;24.10;80.30
1175;DHT22;576;48.418;10.074;2022-08-19T13:45:22;24.10;80.60
1175;DHT22;576;48.418;10.074;2022-08-19T13:47:53;24.00;80.80
1175;DHT22;576;48.418;10.074;2022-08-19T13:50:29;24.00;80.60
1175;DHT22;576;48.418;10.074;2022-08-19T13:52:59;23.90;81.00
1175;DHT22;576;48.418;10.074;2022-08-19T13:55:28;23.90;81.00
1175;DHT22;576;48.418;10.074;2022-08-19T13:57:59;24.00;80.80
1175;DHT22;576;48.418;10.074;2022-08-19T14:00:29;24.10;80.00
1175;DHT22;576;48.418;10.074;2022-08-19T14:02:58;24.10;79.70
1175;DHT22;576;48.418;10.074;2022-08-19T14:05:30;24.20;79.80
1175;DHT22;576;48.418;10.074;2022-08-19T14:07:58;24.30;79.20
1175;DHT22;576;48.418;10.074;2022-08-19T14:10:27;24.40;78.90
1175;DHT22;576;48.418;10.074;2022-08-19T14:13:00;24.50;78.50
1175;DHT22;576;48.418;10.074;2022-08-19T14:15:29;24.70;77.90
1175;DHT22;576;48.418;10.074;2022-08-19T14:17:58;25.00;76.90
1175;DHT22;576;48.418;10.074;2022-08-19T14:20:28;25.10;76.40
1175;DHT22;576;48.418;10.074;2022-08-19T14:22:56;25.20;75.80
1175;DHT22;576;48.418;10.074;2022-08-19T14:25:26;25.30;75.50
1175;DHT22;576;48.418;10.074;2022-08-19T14:27:54;25.40;75.20
1175;DHT22;576;48.418;10.074;2022-08-19T14:30:25;25.60;75.20
1175;DHT22;576;48.418;10.074;2022-08-19T14:32:55;25.60;74.50
1175;DHT22;576;48.418;10.074;2022-08-19T14:35:24;25.70;74.50
1175;DHT22;576;48.418;10.074;2022-08-19T14:37:55;25.70;74.50
1175;DHT22;576;48.418;10.074;2022-08-19T14:40:27;25.70;74.70
1175;DHT22;576;48.418;10.074;2022-08-19T14:42:58;25.50;75.00
1175;DHT22;576;48.418;10.074;2022-08-19T14:45:31;25.40;75.30
1175;DHT22;576;48.418;10.074;2022-08-19T14:48:00;25.40;75.30
1175;DHT22;576;48.418;10.074;2022-08-19T14:50:28;25.20;75.60
1175;DHT22;576;48.418;10.074;2022-08-19T14:53:03;25.10;76.10
1175;DHT22;576;48.418;10.074;2022-08-19T14:55:41;25.10;76.20
1175;DHT22;576;48.418;10.074;2022-08-19T14:58:09;25.10;76.10
1175;DHT22;576;48.418;10.074;2022-08-19T15:00:57;25.10;76.40
1175;DHT22;576;48.418;10.074;2022-08-19T15:03:27;25.10;76.00
1175;DHT22;576;48.418;10.074;2022-08-19T15:05:56;25.00;76.40
1175;DHT22;576;48.418;10.074;2022-08-19T15:08:27;24.90;77.30
1175;DHT22;576;48.418;10.074;2022-08-19T15:10:57;24.90;77.80
1175;DHT22;576;48.418;10.074;2022-08-19T15:13:27;24.80;77.90
1175;DHT22;576;48.418;10.074;2022-08-19T15:15:56;24.80;77.50
1175;DHT22;576;48.418;10.074;2022-08-19T15:18:24;24.70;77.40
1175;DHT22;576;48.418;10.074;2022-08-19T15:20:53;24.70;77.90
1175;DHT22;576;48.418;10.074;2022-08-19T15:23:22;24.60;77.80
1175;DHT22;576;48.418;10.074;2022-08-19T15:25:52;24.60;78.30
1175;DHT22;576;48.418;10.074;2022-08-19T15:28:22;24.70;78.10
1175;DHT22;576;48.418;10.074;2022-08-19T15:30:51;24.80;78.20
1175;DHT22;576;48.418;10.074;2022-08-19T15:37:19;24.90;77.80
1175;DHT22;576;48.418;10.074;2022-08-19T15:39:50;24.70;77.90
1175;DHT22;576;48.418;10.074;2022-08-19T15:42:20;24.80;77.60
1175;DHT22;576;48.418;10.074;2022-08-19T15:44:56;24.80;77.90
1175;DHT22;576;48.418;10.074;2022-08-19T15:47:28;24.80;78.20
1175;DHT22;576;48.418;10.074;2022-08-19T15:50:05;24.80;79.10
1175;DHT22;576;48.418;10.074;2022-08-19T15:52:44;24.70;77.90
1175;DHT22;576;48.418;10.074;2022-08-19T15:55:16;24.60;78.50
1175;DHT22;576;48.418;10.074;2022-08-19T15:58:03;24.70;78.90
1175;DHT22;576;48.418;10.074;2022-08-19T16:00:55;24.70;78.20
1175;DHT22;576;48.418;10.074;2022-08-19T16:03:42;24.70;78.70
1175;DHT22;576;48.418;10.074;2022-08-19T16:06:27;24.50;79.10
1175;DHT22;576;48.418;10.074;2022-08-19T16:08:58;24.40;79.20
1175;DHT22;576;48.418;10.074;2022-08-19T16:11:30;24.40;79.30
1175;DHT22;576;48.418;10.074;2022-08-19T16:14:07;24.50;79.30
1175;DHT22;576;48.418;10.074;2022-08-19T16:16:36;24.40;80.00
1175;DHT22;576;48.418;10.074;2022-08-19T16:19:06;24.20;80.40
1175;DHT22;576;48.418;10.074;2022-08-19T16:21:38;23.90;81.70
1175;DHT22;576;48.418;10.074;2022-08-19T16:24:10;23.70;82.70
1175;DHT22;576;48.418;10.074;2022-08-19T16:26:39;23.40;83.60
1175;DHT22;576;48.418;10.074;2022-08-19T16:29:10;23.20;83.90
1175;DHT22;576;48.418;10.074;2022-08-19T16:31:41;23.00;84.80
1175;DHT22;576;48.418;10.074;2022-08-19T16:34:10;22.90;85.50
1175;DHT22;576;48.418;10.074;2022-08-19T16:36:39;22.90;85.20
1175;DHT22;576;48.418;10.074;2022-08-19T16:39:14;23.00;84.90